sensor_id;sensor_type;location;lat;lon;timestamp;temperature;humidity
30572;DHT22;17348;50.948;10.696;2023-09-18T00:00:18;19.30;99.90
30572;DHT22;17348;50.948;10.696;2023-09-18T00:03:22;19.30;99.90
30572;DHT22;17348;50.948;10.696;2023-09-18T00:06:25;19.30;99.90
30572;DHT22;17348;50.948;10.696;2023-09-18T00:09:28;19.20;99.90
30572;DHT22;17348;50.948;10.696;2023-09-18T00:12:31;19.20;99.90
30572;DHT22;17348;50.948;10.696;2023-09-18T00:15:33;19.10;99.90
30572;DHT22;17348;50.948;10.696;2023-09-18T00:18:35;19.10;99.90
30572;DHT22;17348;50.948;10.696;2023-09-18T00:21:38;19.00;99.90
30572;DHT22;17348;50.948;10.696;2023-09-18T00:24:42;19.00;99.90
30572;DHT22;17348;50.948;10.696;2023-09-18T00:27:45;18.90;99.90
30572;DHT22;17348;50.948;10.696;2023-09-18T00:30:48;18.90;99.90
30572;DHT22;17348;50.948;10.696;2023-09-18T00:33:50;18.80;99.90
30572;DHT22;17348;50.948;10.696;2023-09-18T00:36:53;18.80;99.90
30572;DHT22;17348;50.948;10.696;2023-09-18T00:39:56;18.80;99.90
30572;DHT22;17348;50.948;10.696;2023-09-18T00:42:59;18.70;99.90
30572;DHT22;17348;50.948;10.696;2023-09-18T00:46:01;18.70;99.90
30572;DHT22;17348;50.948;10.696;2023-09-18T00:49:04;18.60;99.90
30572;DHT22;17348;50.948;10.696;2023-09-18T00:52:06;18.60;99.90
30572;DHT22;17348;50.948;10.696;2023-09-18T00:55:11;18.60;99.90
30572;DHT22;17348;50.948;10.696;2023-09-18T00:58:13;18.50;99.90
30572;DHT22;17348;50.948;10.696;2023-09-18T01:01:18;18.50;99.90
30572;DHT22;17348;50.948;10.696;2023-09-18T01:04:26;18.40;99.90
30572;DHT22;17348;50.948;10.696;2023-09-18T01:07:29;18.30;99.90
30572;DHT22;17348;50.948;10.696;2023-09-18T01:10:38;18.30;99.90
30572;DHT22;17348;50.948;10.696;2023-09-18T01:13:47;18.30;99.90
30572;DHT22;17348;50.948;10.696;2023-09-18T01:16:57;18.30;99.90
30572;DHT22;17348;50.948;10.696;2023-09-18T01:19:59;18.20;99.90
30572;DHT22;17348;50.948;10.696;2023-09-18T01:23:03;18.20;99.90
30572;DHT22;17348;50.948;10.696;2023-09-18T01:26:06;18.10;99.90
30572;DHT22;17348;50.948;10.696;2023-09-18T01:29:09;18.10;99.90
30572;DHT22;17348;50.948;10.696;2023-09-18T01:32:11;18.00;99.90
30572;DHT22;17348;50.948;10.696;2023-09-18T01:35:15;17.90;99.90
30572;DHT22;17348;50.948;10.696;2023-09-18T01:38:19;17.90;99.90
30572;DHT22;17348;50.948;10.696;2023-09-18T01:41:21;17.90;99.90
30572;DHT22;17348;50.948;10.696;2023-09-18T01:44:23;17.80;99.90
30572;DHT22;17348;50.948;10.696;2023-09-18T01:47:26;17.80;99.90
30572;DHT22;17348;50.948;10.696;2023-09-18T01:50:28;17.80;99.90
30572;DHT22;17348;50.948;10.696;2023-09-18T01:53:35;17.80;99.90
30572;DHT22;17348;50.948;10.696;2023-09-18T01:56:37;17.80;99.90
30572;DHT22;17348;50.948;10.696;2023-09-18T01:59:40;17.70;99.90
30572;DHT22;17348;50.948;10.696;2023-09-18T02:02:44;17.70;99.90
30572;DHT22;17348;50.948;10.696;2023-09-18T02:05:46;17.70;99.90
30572;DHT22;17348;50.948;10.696;2023-09-18T02:08:50;17.70;99.90
30572;DHT22;17348;50.948;10.696;2023-09-18T02:11:54;17.60;99.90
30572;DHT22;17348;50.948;10.696;2023-09-18T02:14:56;17.60;99.90
30572;DHT22;17348;50.948;10.696;2023-09-18T02:17:59;17.60;99.90
30572;DHT22;17348;50.948;10.696;2023-09-18T02:21:01;17.60;99.90
30572;DHT22;17348;50.948;10.696;2023-09-18T02:24:06;17.50;99.90
30572;DHT22;17348;50.948;10.696;2023-09-18T02:27:11;17.50;99.90
30572;DHT22;17348;50.948;10.696;2023-09-18T02:30:14;17.40;99.90
30572;DHT22;17348;50.948;10.696;2023-09-18T02:33:17;17.40;99.90
30572;DHT22;17348;50.948;10.696;2023-09-18T02:36:19;17.40;99.90
30572;DHT22;17348;50.948;10.696;2023-09-18T02:39:22;17.40;99.90
30572;DHT22;17348;50.948;10.696;2023-09-18T02:42:25;17.40;99.90
30572;DHT22;17348;50.948;10.696;2023-09-18T02:45:27;17.30;99.90
30572;DHT22;17348;50.948;10.696;2023-09-18T02:48:31;17.30;99.90
30572;DHT22;17348;50.948;10.696;2023-09-18T02:51:33;17.30;99.90
30572;DHT22;17348;50.948;10.696;2023-09-18T02:54:37;17.30;99.90
30572;DHT22;17348;50.948;10.696;2023-09-18T02:57:39;17.30;99.90
30572;DHT22;17348;50.948;10.696;2023-09-18T03:00:43;17.20;99.90
30572;DHT22;17348;50.948;10.696;2023-09-18T03:03:45;17.20;99.90
30572;DHT22;17348;50.948;10.696;2023-09-18T03:06:47;17.30;99.90
30572;DHT22;17348;50.948;10.696;2023-09-18T03:09:51;17.20;99.90
30572;DHT22;17348;50.948;10.696;2023-09-18T03:12:54;17.20;99.90
30572;DHT22;17348;50.948;10.696;2023-09-18T03:15:56;17.30;99.90
30572;DHT22;17348;50.948;10.696;2023-09-18T03:18:58;17.30;99.90
30572;DHT22;17348;50.948;10.696;2023-09-18T03:22:00;17.20;99.90
30572;DHT22;17348;50.948;10.696;2023-09-18T03:25:05;17.20;99.90
30572;DHT22;17348;50.948;10.696;2023-09-18T03:28:08;17.20;99.90
30572;DHT22;17348;50.948;10.696;2023-09-18T03:31:11;17.20;99.90
30572;DHT22;17348;50.948;10.696;2023-09-18T03:34:13;17.10;99.90
30572;DHT22;17348;50.948;10.696;2023-09-18T03:37:15;17.20;99.90
30572;DHT22;17348;50.948;10.696;2023-09-18T03:40:19;17.10;99.90
30572;DHT22;17348;50.948;10.696;2023-09-18T03:43:21;17.10;99.90
30572;DHT22;17348;50.948;10.696;2023-09-18T03:46:24;17.10;99.90
30572;DHT22;17348;50.948;10.696;2023-09-18T03:49:27;17.10;99.90
30572;DHT22;17348;50.948;10.696;2023-09-18T03:52:30;17.00;99.90
30572;DHT22;17348;50.948;10.696;2023-09-18T03:55:33;17.00;99.90
30572;DHT22;17348;50.948;10.696;2023-09-18T03:58:35;17.00;99.90
30572;DHT22;17348;50.948;10.696;2023-09-18T04:01:38;16.90;99.90
30572;DHT22;17348;50.948;10.696;2023-09-18T04:04:40;16.90;99.90
30572;DHT22;17348;50.948;10.696;2023-09-18T04:07:43;16.90;99.90
30572;DHT22;17348;50.948;10.696;2023-09-18T04:10:48;16.90;99.90
30572;DHT22;17348;50.948;10.696;2023-09-18T04:13:50;16.90;99.90
30572;DHT22;17348;50.948;10.696;2023-09-18T04:16:53;16.80;99.90
30572;DHT22;17348;50.948;10.696;2023-09-18T04:19:55;16.80;99.90
30572;DHT22;17348;50.948;10.696;2023-09-18T04:23:23;16.80;99.90
30572;DHT22;17348;50.948;10.696;2023-09-18T04:26:27;16.70;99.90
30572;DHT22;17348;50.948;10.696;2023-09-18T04:29:30;16.70;99.90
30572;DHT22;17348;50.948;10.696;2023-09-18T04:32:32;16.60;99.90
30572;DHT22;17348;50.948;10.696;2023-09-18T04:35:35;16.60;99.90
30572;DHT22;17348;50.948;10.696;2023-09-18T04:38:38;16.60;99.90
30572;DHT22;17348;50.948;10.696;2023-09-18T04:41:42;16.60;99.90
30572;DHT22;17348;50.948;10.696;2023-09-18T04:44:44;16.60;99.90
30572;DHT22;17348;50.948;10.696;2023-09-18T04:47:47;16.60;99.90
30572;DHT22;17348;50.948;10.696;2023-09-18T04:50:49;16.70;99.90
30572;DHT22;17348;50.948;10.696;2023-09-18T04:53:51;16.80;99.90
30572;DHT22;17348;50.948;10.696;2023-09-18T04:56:57;16.90;99.90
30572;DHT22;17348;50.948;10.696;2023-09-18T04:59:59;17.00;99.90
30572;DHT22;17348;50.948;10.696;2023-09-18T05:03:01;17.00;99.90
30572;DHT22;17348;50.948;10.696;2023-09-18T05:06:05;17.10;99.90
30572;DHT22;17348;50.948;10.696;2023-09-18T05:09:07;17.20;99.90
30572;DHT22;17348;50.948;10.696;2023-09-18T05:12:10;17.30;99.90
30572;DHT22;17348;50.948;10.696;2023-09-18T05:15:14;17.30;99.90
30572;DHT22;17348;50.948;10.696;2023-09-18T05:18:17;17.40;99.90
30572;DHT22;17348;50.948;10.696;2023-09-18T05:21:19;17.60;99.90
30572;DHT22;17348;50.948;10.696;2023-09-18T05:24:25;17.70;99.90
30572;DHT22;17348;50.948;10.696;2023-09-18T05:27:29;17.90;99.90
30572;DHT22;17348;50.948;10.696;2023-09-18T05:30:33;18.10;99.90
30572;DHT22;17348;50.948;10.696;2023-09-18T05:33:36;18.40;99.90
30572;DHT22;17348;50.948;10.696;2023-09-18T05:36:38;18.80;99.90
30572;DHT22;17348;50.948;10.696;2023-09-18T05:39:41;19.10;99.90
30572;DHT22;17348;50.948;10.696;2023-09-18T05:42:44;19.30;99.90
30572;DHT22;17348;50.948;10.696;2023-09-18T05:45:47;19.60;99.90
30572;DHT22;17348;50.948;10.696;2023-09-18T05:48:50;19.70;99.90
30572;DHT22;17348;50.948;10.696;2023-09-18T05:51:54;19.90;99.90
30572;DHT22;17348;50.948;10.696;2023-09-18T05:54:57;20.00;99.90
30572;DHT22;17348;50.948;10.696;2023-09-18T05:58:00;20.10;99.90
30572;DHT22;17348;50.948;10.696;2023-09-18T06:01:04;20.20;99.90
30572;DHT22;17348;50.948;10.696;2023-09-18T06:04:06;20.30;99.90
30572;DHT22;17348;50.948;10.696;2023-09-18T06:07:08;20.30;99.90
30572;DHT22;17348;50.948;10.696;2023-09-18T06:10:11;20.30;99.90
30572;DHT22;17348;50.948;10.696;2023-09-18T06:13:14;20.30;99.90
30572;DHT22;17348;50.948;10.696;2023-09-18T06:16:17;20.30;99.90
30572;DHT22;17348;50.948;10.696;2023-09-18T06:19:19;20.30;99.90
30572;DHT22;17348;50.948;10.696;2023-09-18T06:22:22;20.40;99.90
30572;DHT22;17348;50.948;10.696;2023-09-18T06:25:25;20.30;99.90
30572;DHT22;17348;50.948;10.696;2023-09-18T06:28:28;20.30;99.90
30572;DHT22;17348;50.948;10.696;2023-09-18T06:31:31;20.30;99.90
30572;DHT22;17348;50.948;10.696;2023-09-18T06:34:33;20.20;99.90
30572;DHT22;17348;50.948;10.696;2023-09-18T06:37:36;20.10;99.90
30572;DHT22;17348;50.948;10.696;2023-09-18T06:40:38;20.10;99.90
30572;DHT22;17348;50.948;10.696;2023-09-18T06:43:42;20.10;99.90
30572;DHT22;17348;50.948;10.696;2023-09-18T06:46:44;20.30;99.90
30572;DHT22;17348;50.948;10.696;2023-09-18T06:49:46;20.50;99.90
30572;DHT22;17348;50.948;10.696;2023-09-18T06:52:49;20.70;99.90
30572;DHT22;17348;50.948;10.696;2023-09-18T06:55:51;20.90;99.90
30572;DHT22;17348;50.948;10.696;2023-09-18T06:58:55;21.00;99.90
30572;DHT22;17348;50.948;10.696;2023-09-18T07:01:57;21.10;99.90
30572;DHT22;17348;50.948;10.696;2023-09-18T07:04:59;21.20;99.90
30572;DHT22;17348;50.948;10.696;2023-09-18T07:08:02;21.30;99.90
30572;DHT22;17348;50.948;10.696;2023-09-18T07:11:06;21.30;99.90
30572;DHT22;17348;50.948;10.696;2023-09-18T07:14:10;21.40;99.90
30572;DHT22;17348;50.948;10.696;2023-09-18T07:17:12;21.50;99.90
30572;DHT22;17348;50.948;10.696;2023-09-18T07:20:14;21.50;99.90
30572;DHT22;17348;50.948;10.696;2023-09-18T07:23:18;21.60;99.90
30572;DHT22;17348;50.948;10.696;2023-09-18T07:26:20;21.70;99.90
30572;DHT22;17348;50.948;10.696;2023-09-18T07:29:24;21.70;99.90
30572;DHT22;17348;50.948;10.696;2023-09-18T07:32:27;21.80;99.90
30572;DHT22;17348;50.948;10.696;2023-09-18T07:35:29;21.80;99.90
30572;DHT22;17348;50.948;10.696;2023-09-18T07:38:31;21.90;99.90
30572;DHT22;17348;50.948;10.696;2023-09-18T07:41:34;21.90;99.90
30572;DHT22;17348;50.948;10.696;2023-09-18T07:44:37;22.00;99.90
30572;DHT22;17348;50.948;10.696;2023-09-18T07:47:40;22.10;99.90
30572;DHT22;17348;50.948;10.696;2023-09-18T07:50:43;22.10;99.90
30572;DHT22;17348;50.948;10.696;2023-09-18T07:53:46;22.20;99.90
30572;DHT22;17348;50.948;10.696;2023-09-18T07:56:49;22.40;99.90
30572;DHT22;17348;50.948;10.696;2023-09-18T07:59:53;22.50;99.90
30572;DHT22;17348;50.948;10.696;2023-09-18T08:02:55;22.70;99.90
30572;DHT22;17348;50.948;10.696;2023-09-18T08:06:01;22.80;99.90
30572;DHT22;17348;50.948;10.696;2023-09-18T08:09:05;22.90;99.90
30572;DHT22;17348;50.948;10.696;2023-09-18T08:12:10;22.90;99.90
30572;DHT22;17348;50.948;10.696;2023-09-18T08:15:14;23.00;99.90
30572;DHT22;17348;50.948;10.696;2023-09-18T08:18:16;23.10;99.90
30572;DHT22;17348;50.948;10.696;2023-09-18T08:21:18;23.10;99.90
30572;DHT22;17348;50.948;10.696;2023-09-18T08:24:21;23.20;99.90
30572;DHT22;17348;50.948;10.696;2023-09-18T08:27:24;23.30;99.90
30572;DHT22;17348;50.948;10.696;2023-09-18T08:30:28;23.40;99.90
30572;DHT22;17348;50.948;10.696;2023-09-18T08:33:30;23.50;99.90
30572;DHT22;17348;50.948;10.696;2023-09-18T08:36:33;23.70;99.90
30572;DHT22;17348;50.948;10.696;2023-09-18T08:39:35;23.70;99.90
30572;DHT22;17348;50.948;10.696;2023-09-18T08:42:40;23.80;99.90
30572;DHT22;17348;50.948;10.696;2023-09-18T08:45:49;23.80;99.90
30572;DHT22;17348;50.948;10.696;2023-09-18T08:48:54;23.80;99.90
30572;DHT22;17348;50.948;10.696;2023-09-18T08:51:57;23.80;99.90
30572;DHT22;17348;50.948;10.696;2023-09-18T08:55:01;23.60;99.90
30572;DHT22;17348;50.948;10.696;2023-09-18T08:58:07;23.50;99.90
30572;DHT22;17348;50.948;10.696;2023-09-18T09:01:11;23.50;99.90
30572;DHT22;17348;50.948;10.696;2023-09-18T09:04:14;23.50;99.90
30572;DHT22;17348;50.948;10.696;2023-09-18T09:07:16;23.50;99.90
30572;DHT22;17348;50.948;10.696;2023-09-18T09:10:19;23.50;99.90
30572;DHT22;17348;50.948;10.696;2023-09-18T09:13:21;23.50;99.90
30572;DHT22;17348;50.948;10.696;2023-09-18T09:16:28;23.60;99.90
30572;DHT22;17348;50.948;10.696;2023-09-18T09:19:32;23.60;99.90
30572;DHT22;17348;50.948;10.696;2023-09-18T09:22:38;23.60;99.90
30572;DHT22;17348;50.948;10.696;2023-09-18T09:25:48;23.60;99.90
30572;DHT22;17348;50.948;10.696;2023-09-18T09:28:51;23.50;99.90
30572;DHT22;17348;50.948;10.696;2023-09-18T09:31:55;23.50;99.90
30572;DHT22;17348;50.948;10.696;2023-09-18T09:34:58;23.40;99.90
30572;DHT22;17348;50.948;10.696;2023-09-18T09:41:32;23.30;99.90
30572;DHT22;17348;50.948;10.696;2023-09-18T09:44:45;23.40;99.90
30572;DHT22;17348;50.948;10.696;2023-09-18T09:47:53;23.40;99.90
30572;DHT22;17348;50.948;10.696;2023-09-18T09:50:58;23.50;99.90
30572;DHT22;17348;50.948;10.696;2023-09-18T09:54:02;23.50;99.90
30572;DHT22;17348;50.948;10.696;2023-09-18T09:57:04;23.60;99.90
30572;DHT22;17348;50.948;10.696;2023-09-18T10:00:08;23.60;99.90
30572;DHT22;17348;50.948;10.696;2023-09-18T10:03:29;23.60;99.90
30572;DHT22;17348;50.948;10.696;2023-09-18T10:06:35;23.60;99.90
30572;DHT22;17348;50.948;10.696;2023-09-18T10:09:41;23.50;99.90
30572;DHT22;17348;50.948;10.696;2023-09-18T10:12:46;23.60;99.90
30572;DHT22;17348;50.948;10.696;2023-09-18T10:15:51;23.60;99.90
30572;DHT22;17348;50.948;10.696;2023-09-18T10:19:07;23.60;99.90
30572;DHT22;17348;50.948;10.696;2023-09-18T10:22:15;23.70;99.90
30572;DHT22;17348;50.948;10.696;2023-09-18T10:25:24;23.80;99.90
30572;DHT22;17348;50.948;10.696;2023-09-18T10:28:30;23.80;99.90
30572;DHT22;17348;50.948;10.696;2023-09-18T10:31:34;23.90;99.90
30572;DHT22;17348;50.948;10.696;2023-09-18T10:34:40;24.00;99.90
30572;DHT22;17348;50.948;10.696;2023-09-18T10:37:43;24.10;99.90
30572;DHT22;17348;50.948;10.696;2023-09-18T10:40:48;24.00;99.90
30572;DHT22;17348;50.948;10.696;2023-09-18T10:43:53;24.00;99.90
30572;DHT22;17348;50.948;10.696;2023-09-18T10:47:07;24.10;99.90
30572;DHT22;17348;50.948;10.696;2023-09-18T10:50:11;24.00;99.90
30572;DHT22;17348;50.948;10.696;2023-09-18T10:53:13;24.00;99.90
30572;DHT22;17348;50.948;10.696;2023-09-18T10:56:15;23.90;99.90
30572;DHT22;17348;50.948;10.696;2023-09-18T10:59:18;23.90;99.90
30572;DHT22;17348;50.948;10.696;2023-09-18T11:02:24;24.00;99.90
30572;DHT22;17348;50.948;10.696;2023-09-18T11:05:29;24.10;99.90
30572;DHT22;17348;50.948;10.696;2023-09-18T11:08:33;24.10;99.90
30572;DHT22;17348;50.948;10.696;2023-09-18T11:11:36;24.30;99.90
30572;DHT22;17348;50.948;10.696;2023-09-18T11:14:45;24.30;99.90
30572;DHT22;17348;50.948;10.696;2023-09-18T11:17:59;24.10;99.90
30572;DHT22;17348;50.948;10.696;2023-09-18T11:21:09;24.10;99.90
30572;DHT22;17348;50.948;10.696;2023-09-18T11:24:17;24.10;99.90
30572;DHT22;17348;50.948;10.696;2023-09-18T11:27:24;24.00;99.90
30572;DHT22;17348;50.948;10.696;2023-09-18T11:30:26;23.90;99.90
30572;DHT22;17348;50.948;10.696;2023-09-18T11:33:35;23.70;99.90
30572;DHT22;17348;50.948;10.696;2023-09-18T11:36:38;23.60;99.90
30572;DHT22;17348;50.948;10.696;2023-09-18T11:39:41;23.50;99.90
30572;DHT22;17348;50.948;10.696;2023-09-18T11:46:27;23.50;99.90
30572;DHT22;17348;50.948;10.696;2023-09-18T11:49:33;23.30;99.90
30572;DHT22;17348;50.948;10.696;2023-09-18T11:52:36;23.20;99.90
30572;DHT22;17348;50.948;10.696;2023-09-18T11:55:39;23.20;99.90
30572;DHT22;17348;50.948;10.696;2023-09-18T11:58:45;23.20;99.90
30572;DHT22;17348;50.948;10.696;2023-09-18T12:01:53;23.10;99.90
30572;DHT22;17348;50.948;10.696;2023-09-18T12:05:10;23.00;99.90
30572;DHT22;17348;50.948;10.696;2023-09-18T12:08:13;22.80;99.90
30572;DHT22;17348;50.948;10.696;2023-09-18T12:11:16;22.70;99.90
30572;DHT22;17348;50.948;10.696;2023-09-18T12:14:20;22.60;99.90
30572;DHT22;17348;50.948;10.696;2023-09-18T12:17:23;22.50;99.90
30572;DHT22;17348;50.948;10.696;2023-09-18T12:20:26;22.40;99.90
30572;DHT22;17348;50.948;10.696;2023-09-18T12:23:29;22.30;99.90
30572;DHT22;17348;50.948;10.696;2023-09-18T12:26:33;22.20;99.90
30572;DHT22;17348;50.948;10.696;2023-09-18T12:29:35;22.10;99.90
30572;DHT22;17348;50.948;10.696;2023-09-18T12:32:40;22.10;99.90
30572;DHT22;17348;50.948;10.696;2023-09-18T12:35:44;22.10;99.90
30572;DHT22;17348;50.948;10.696;2023-09-18T12:38:55;22.00;99.90
30572;DHT22;17348;50.948;10.696;2023-09-18T12:41:58;22.00;99.90
30572;DHT22;17348;50.948;10.696;2023-09-18T12:45:01;22.00;99.90
30572;DHT22;17348;50.948;10.696;2023-09-18T12:48:03;21.90;99.90
30572;DHT22;17348;50.948;10.696;2023-09-18T12:51:08;21.80;99.90
30572;DHT22;17348;50.948;10.696;2023-09-18T12:54:10;21.90;99.90
30572;DHT22;17348;50.948;10.696;2023-09-18T12:57:15;21.80;99.90
30572;DHT22;17348;50.948;10.696;2023-09-18T13:00:19;21.80;99.90
30572;DHT22;17348;50.948;10.696;2023-09-18T13:03:23;21.80;99.90
30572;DHT22;17348;50.948;10.696;2023-09-18T13:06:27;21.80;99.90
30572;DHT22;17348;50.948;10.696;2023-09-18T13:09:29;21.90;99.90
30572;DHT22;17348;50.948;10.696;2023-09-18T13:12:42;21.90;99.90
30572;DHT22;17348;50.948;10.696;2023-09-18T13:15:44;21.90;99.90
30572;DHT22;17348;50.948;10.696;2023-09-18T13:18:48;21.90;99.90
30572;DHT22;17348;50.948;10.696;2023-09-18T13:21:52;22.00;99.90
30572;DHT22;17348;50.948;10.696;2023-09-18T13:24:58;21.90;99.90
30572;DHT22;17348;50.948;10.696;2023-09-18T13:28:02;22.00;99.90
30572;DHT22;17348;50.948;10.696;2023-09-18T13:31:05;22.00;99.90
30572;DHT22;17348;50.948;10.696;2023-09-18T13:34:08;22.00;99.90
30572;DHT22;17348;50.948;10.696;2023-09-18T13:37:11;22.00;99.90
30572;DHT22;17348;50.948;10.696;2023-09-18T13:40:15;22.00;99.90
30572;DHT22;17348;50.948;10.696;2023-09-18T13:43:17;22.10;99.90
30572;DHT22;17348;50.948;10.696;2023-09-18T13:46:22;22.10;99.90
30572;DHT22;17348;50.948;10.696;2023-09-18T13:49:24;22.20;99.90
30572;DHT22;17348;50.948;10.696;2023-09-18T13:52:29;22.20;99.90
30572;DHT22;17348;50.948;10.696;2023-09-18T13:55:31;22.20;99.90
30572;DHT22;17348;50.948;10.696;2023-09-18T13:58:33;22.30;99.90
30572;DHT22;17348;50.948;10.696;2023-09-18T14:01:36;22.30;99.90
30572;DHT22;17348;50.948;10.696;2023-09-18T14:04:39;22.30;99.90
30572;DHT22;17348;50.948;10.696;2023-09-18T14:07:42;22.30;99.90
30572;DHT22;17348;50.948;10.696;2023-09-18T14:10:44;22.30;99.90
30572;DHT22;17348;50.948;10.696;2023-09-18T14:13:47;22.30;99.90
30572;DHT22;17348;50.948;10.696;2023-09-18T14:16:51;22.20;99.90
30572;DHT22;17348;50.948;10.696;2023-09-18T14:19:54;22.20;99.90
30572;DHT22;17348;50.948;10.696;2023-09-18T14:22:58;22.20;99.90
30572;DHT22;17348;50.948;10.696;2023-09-18T14:26:01;22.20;99.90
30572;DHT22;17348;50.948;10.696;2023-09-18T14:29:03;22.10;99.90
30572;DHT22;17348;50.948;10.696;2023-09-18T14:32:06;22.10;99.90
30572;DHT22;17348;50.948;10.696;2023-09-18T14:35:09;22.20;99.90
30572;DHT22;17348;50.948;10.696;2023-09-18T14:38:13;22.20;99.90
30572;DHT22;17348;50.948;10.696;2023-09-18T14:41:16;22.20;99.90
30572;DHT22;17348;50.948;10.696;2023-09-18T14:44:19;22.20;99.90
30572;DHT22;17348;50.948;10.696;2023-09-18T14:47:21;22.20;99.90
30572;DHT22;17348;50.948;10.696;2023-09-18T14:50:23;22.20;99.90
30572;DHT22;17348;50.948;10.696;2023-09-18T14:53:27;22.20;99.90
30572;DHT22;17348;50.948;10.696;2023-09-18T14:56:30;22.20;99.90
30572;DHT22;17348;50.948;10.696;2023-09-18T14:59:32;22.20;99.90
30572;DHT22;17348;50.948;10.696;2023-09-18T15:02:34;22.20;99.90
30572;DHT22;17348;50.948;10.696;2023-09-18T15:05:37;22.00;99.90
30572;DHT22;17348;50.948;10.696;2023-09-18T15:08:40;21.90;99.90
30572;DHT22;17348;50.948;10.696;2023-09-18T15:11:43;21.90;99.90
30572;DHT22;17348;50.948;10.696;2023-09-18T15:14:45;22.00;99.90
30572;DHT22;17348;50.948;10.696;2023-09-18T15:17:48;22.00;99.90
30572;DHT22;17348;50.948;10.696;2023-09-18T15:20:52;21.90;99.90
30572;DHT22;17348;50.948;10.696;2023-09-18T15:23:57;21.80;99.90
30572;DHT22;17348;50.948;10.696;2023-09-18T15:26:59;21.70;99.90
30572;DHT22;17348;50.948;10.696;2023-09-18T15:30:02;21.70;99.90
30572;DHT22;17348;50.948;10.696;2023-09-18T15:33:06;21.60;99.90
30572;DHT22;17348;50.948;10.696;2023-09-18T15:36:08;21.60;99.90
30572;DHT22;17348;50.948;10.696;2023-09-18T15:39:12;21.60;99.90
30572;DHT22;17348;50.948;10.696;2023-09-18T15:42:14;21.60;99.90
30572;DHT22;17348;50.948;10.696;2023-09-18T15:45:16;21.60;99.90
30572;DHT22;17348;50.948;10.696;2023-09-18T15:48:19;21.60;99.90
30572;DHT22;17348;50.948;10.696;2023-09-18T15:51:21;21.60;99.90
30572;DHT22;17348;50.948;10.696;2023-09-18T15:54:25;21.60;99.90
30572;DHT22;17348;50.948;10.696;2023-09-18T15:57:29;21.70;99.90
30572;DHT22;17348;50.948;10.696;2023-09-18T16:00:32;21.70;99.90
30572;DHT22;17348;50.948;10.696;2023-09-18T16:03:34;21.70;99.90
30572;DHT22;17348;50.948;10.696;2023-09-18T16:06:37;21.80;99.90
30572;DHT22;17348;50.948;10.696;2023-09-18T16:09:40;21.80;99.90
30572;DHT22;17348;50.948;10.696;2023-09-18T16:12:43;21.80;99.90
30572;DHT22;17348;50.948;10.696;2023-09-18T16:15:45;21.70;99.90
30572;DHT22;17348;50.948;10.696;2023-09-18T16:18:48;21.80;99.90
30572;DHT22;17348;50.948;10.696;2023-09-18T16:21:51;21.90;99.90
30572;DHT22;17348;50.948;10.696;2023-09-18T16:24:54;22.00;99.90
30572;DHT22;17348;50.948;10.696;2023-09-18T16:28:04;22.00;99.90
30572;DHT22;17348;50.948;10.696;2023-09-18T16:31:07;22.10;99.90
30572;DHT22;17348;50.948;10.696;2023-09-18T16:34:09;22.10;99.90
30572;DHT22;17348;50.948;10.696;2023-09-18T16:37:12;22.20;99.90
30572;DHT22;17348;50.948;10.696;2023-09-18T16:40:15;22.20;99.90
30572;DHT22;17348;50.948;10.696;2023-09-18T16:43:18;22.20;99.90
30572;DHT22;17348;50.948;10.696;2023-09-18T16:46:20;22.20;99.90
30572;DHT22;17348;50.948;10.696;2023-09-18T16:49:23;22.10;99.90
30572;DHT22;17348;50.948;10.696;2023-09-18T16:52:25;22.10;99.90
30572;DHT22;17348;50.948;10.696;2023-09-18T16:55:29;22.10;99.90
30572;DHT22;17348;50.948;10.696;2023-09-18T16:58:32;21.90;99.90
30572;DHT22;17348;50.948;10.696;2023-09-18T17:01:34;21.70;99.90
30572;DHT22;17348;50.948;10.696;2023-09-18T17:04:36;21.60;99.90
30572;DHT22;17348;50.948;10.696;2023-09-18T17:07:41;21.50;99.90
30572;DHT22;17348;50.948;10.696;2023-09-18T17:10:45;21.40;99.90
30572;DHT22;17348;50.948;10.696;2023-09-18T17:13:47;21.30;99.90
30572;DHT22;17348;50.948;10.696;2023-09-18T17:16:49;21.20;99.90
30572;DHT22;17348;50.948;10.696;2023-09-18T17:19:52;21.10;99.90
30572;DHT22;17348;50.948;10.696;2023-09-18T17:22:54;21.00;99.90
30572;DHT22;17348;50.948;10.696;2023-09-18T17:25:58;20.90;99.90
30572;DHT22;17348;50.948;10.696;2023-09-18T17:29:00;20.80;99.90
30572;DHT22;17348;50.948;10.696;2023-09-18T17:32:04;20.70;99.90
30572;DHT22;17348;50.948;10.696;2023-09-18T17:35:07;20.60;99.90
30572;DHT22;17348;50.948;10.696;2023-09-18T17:38:09;20.60;99.90
30572;DHT22;17348;50.948;10.696;2023-09-18T17:41:13;20.50;99.90
30572;DHT22;17348;50.948;10.696;2023-09-18T17:44:16;20.40;99.90
30572;DHT22;17348;50.948;10.696;2023-09-18T17:47:18;20.40;99.90
30572;DHT22;17348;50.948;10.696;2023-09-18T17:50:20;20.30;99.90
30572;DHT22;17348;50.948;10.696;2023-09-18T17:53:23;20.20;99.90
30572;DHT22;17348;50.948;10.696;2023-09-18T17:56:26;20.10;99.90
30572;DHT22;17348;50.948;10.696;2023-09-18T17:59:28;20.10;99.90
30572;DHT22;17348;50.948;10.696;2023-09-18T18:02:31;20.00;99.90
30572;DHT22;17348;50.948;10.696;2023-09-18T18:05:33;19.90;99.90
30572;DHT22;17348;50.948;10.696;2023-09-18T18:08:36;19.90;99.90
30572;DHT22;17348;50.948;10.696;2023-09-18T18:11:39;19.90;99.90
30572;DHT22;17348;50.948;10.696;2023-09-18T18:14:42;19.80;99.90
30572;DHT22;17348;50.948;10.696;2023-09-18T18:17:44;19.80;99.90
30572;DHT22;17348;50.948;10.696;2023-09-18T18:20:46;19.70;99.90
30572;DHT22;17348;50.948;10.696;2023-09-18T18:23:49;19.70;99.90
30572;DHT22;17348;50.948;10.696;2023-09-18T18:26:52;19.70;99.90
30572;DHT22;17348;50.948;10.696;2023-09-18T18:29:55;19.60;99.90
30572;DHT22;17348;50.948;10.696;2023-09-18T18:32:57;19.60;99.90
30572;DHT22;17348;50.948;10.696;2023-09-18T18:35:59;19.60;99.90
30572;DHT22;17348;50.948;10.696;2023-09-18T18:39:02;19.50;99.90
30572;DHT22;17348;50.948;10.696;2023-09-18T18:42:07;19.50;99.90
30572;DHT22;17348;50.948;10.696;2023-09-18T18:45:10;19.50;99.90
30572;DHT22;17348;50.948;10.696;2023-09-18T18:48:14;19.50;99.90
30572;DHT22;17348;50.948;10.696;2023-09-18T18:51:16;19.50;99.90
30572;DHT22;17348;50.948;10.696;2023-09-18T18:54:18;19.50;99.90
30572;DHT22;17348;50.948;10.696;2023-09-18T18:57:22;19.50;99.90
30572;DHT22;17348;50.948;10.696;2023-09-18T19:00:25;19.50;99.90
30572;DHT22;17348;50.948;10.696;2023-09-18T19:03:28;19.50;99.90
30572;DHT22;17348;50.948;10.696;2023-09-18T19:06:30;19.40;99.90